Time;durP1;ratioP1;P1;durP2;ratioP2;P2;SDS_P1;SDS_P2;PMS_P1;PMS_P2;Temp;Humidity;BMP_temperature;BMP_pressure;BME280_temperature;BME280_humidity;BME280_pressure;Samples;Min_cycle;Max_cycle;Signal;HPM_P1;HPM_P2
2022/01/02 00:01:20;;;;;;;39.40;26.00;;;10.80;99.90;;;;;;5015538;28;20773;-71
2022/01/02 00:03:55;;;;;;;36.80;27.40;;;10.80;99.90;;;;;;5017969;28;20215;-71
2022/01/02 00:06:25;;;;;;;37.00;26.20;;;10.80;99.90;;;;;;5029415;28;20269;-71
2022/01/02 00:09:04;;;;;;;34.43;25.43;;;10.70;99.90;;;;;;5042033;28;20280;-71
2022/01/02 00:11:32;;;;;;;35.83;25.57;;;10.70;99.90;;;;;;5011912;28;20225;-71
2022/01/02 00:14:07;;;;;;;34.63;24.43;;;10.60;99.90;;;;;;5042561;28;20196;-71
2022/01/02 00:16:38;;;;;;;33.13;25.47;;;10.60;99.90;;;;;;5028991;28;20237;-70
2022/01/02 00:19:20;;;;;;;37.10;25.13;;;10.60;99.90;;;;;;5031315;28;20184;-71
2022/01/02 00:21:48;;;;;;;34.67;24.67;;;10.60;99.90;;;;;;5026306;28;20672;-71
2022/01/02 00:24:19;;;;;;;39.70;25.77;;;10.70;99.90;;;;;;5033332;28;20187;-71
2022/01/02 00:26:50;;;;;;;38.40;24.57;;;10.70;99.90;;;;;;5046712;28;20302;-70
2022/01/02 00:29:16;;;;;;;34.37;25.30;;;10.70;99.90;;;;;;5024227;28;20187;-71
2022/01/02 00:31:43;;;;;;;30.23;24.07;;;10.60;99.90;;;;;;5028630;28;20276;-71
2022/01/02 00:34:10;;;;;;;32.13;25.07;;;10.60;99.90;;;;;;5037704;28;20198;-71
2022/01/02 00:36:37;;;;;;;37.67;25.17;;;10.50;99.90;;;;;;5025831;28;20191;-71
2022/01/02 00:39:06;;;;;;;38.07;25.17;;;10.50;99.90;;;;;;5022939;28;20881;-71
2022/01/02 00:42:02;;;;;;;40.10;25.23;;;10.50;99.90;;;;;;5042009;28;20227;-71
2022/01/02 00:45:04;;;;;;;36.97;25.30;;;10.60;99.90;;;;;;5029448;28;20279;-71
2022/01/02 00:47:36;;;;;;;35.40;24.27;;;10.60;99.90;;;;;;5020531;28;20215;-71
2022/01/02 00:50:14;;;;;;;30.63;24.67;;;10.50;99.90;;;;;;5015754;28;20891;-71
2022/01/02 00:52:44;;;;;;;37.40;24.00;;;10.50;99.90;;;;;;5035212;28;20198;-71
2022/01/02 00:55:21;;;;;;;36.60;23.73;;;10.40;99.90;;;;;;5028823;28;20285;-71
2022/01/02 00:58:10;;;;;;;34.97;23.90;;;10.40;99.90;;;;;;5023535;28;20222;-71
2022/01/02 01:00:37;;;;;;;34.63;23.87;;;10.40;99.90;;;;;;5038147;28;20290;-71
2022/01/02 01:03:09;;;;;;;34.87;23.70;;;10.30;99.90;;;;;;5001954;28;20560;-71
2022/01/02 01:05:38;;;;;;;31.87;22.30;;;10.30;99.90;;;;;;5029688;28;20293;-71
2022/01/02 01:08:07;;;;;;;29.93;22.97;;;10.20;99.90;;;;;;5022502;28;20204;-71
2022/01/02 01:10:40;;;;;;;32.23;23.83;;;10.20;99.90;;;;;;5023666;28;20189;-70
2022/01/02 01:13:09;;;;;;;29.53;23.57;;;10.20;99.90;;;;;;5045204;28;20759;-71
2022/01/02 01:15:37;;;;;;;41.93;24.97;;;10.30;99.90;;;;;;5032556;28;20673;-71
2022/01/02 01:18:04;;;;;;;37.97;23.97;;;10.30;99.90;;;;;;5011179;28;20829;-71
2022/01/02 01:20:40;;;;;;;32.70;22.80;;;10.30;99.90;;;;;;5027868;28;20191;-71
2022/01/02 01:23:08;;;;;;;34.37;24.33;;;10.20;99.90;;;;;;5034152;28;20191;-71
2022/01/02 01:25:38;;;;;;;32.57;23.57;;;10.20;99.90;;;;;;5054664;28;20187;-70
2022/01/02 01:28:04;;;;;;;30.43;23.13;;;10.20;99.90;;;;;;5012546;28;20230;-71
2022/01/02 01:30:31;;;;;;;31.77;23.60;;;10.10;99.90;;;;;;5029216;28;20222;-71
2022/01/02 01:32:57;;;;;;;37.17;24.60;;;10.10;99.90;;;;;;5030020;28;20599;-71
2022/01/02 01:35:24;;;;;;;34.23;22.90;;;10.10;99.90;;;;;;5050118;28;20253;-71
2022/01/02 01:37:50;;;;;;;36.00;25.07;;;10.10;99.90;;;;;;5035294;28;20197;-71
2022/01/02 01:40:18;;;;;;;33.33;23.57;;;10.10;99.90;;;;;;5010837;28;20724;-70
2022/01/02 01:43:00;;;;;;;33.00;23.70;;;10.10;99.90;;;;;;5050094;28;20206;-71
2022/01/02 01:45:30;;;;;;;35.27;23.63;;;10.10;99.90;;;;;;5017939;28;20546;-71
2022/01/02 01:48:00;;;;;;;32.97;23.67;;;10.10;99.90;;;;;;5021621;28;20227;-71
2022/01/02 01:50:35;;;;;;;31.93;24.03;;;10.10;99.90;;;;;;5047790;28;20310;-71
2022/01/02 01:53:01;;;;;;;40.00;24.70;;;10.00;99.90;;;;;;5011685;28;20183;-71
2022/01/02 01:55:28;;;;;;;33.73;23.60;;;10.00;99.90;;;;;;5027035;28;20194;-71
2022/01/02 01:57:55;;;;;;;37.37;24.43;;;10.00;99.90;;;;;;5032593;28;20293;-71
2022/01/02 02:00:23;;;;;;;35.10;23.63;;;10.00;99.90;;;;;;5030023;28;20230;-71
2022/01/02 02:02:49;;;;;;;38.77;24.77;;;10.00;99.90;;;;;;5026424;28;20587;-71
2022/01/02 02:05:17;;;;;;;33.37;23.30;;;10.00;99.90;;;;;;5051570;28;20318;-71
2022/01/02 02:07:45;;;;;;;35.13;24.10;;;10.00;99.90;;;;;;5028513;28;20222;-71
2022/01/02 02:10:24;;;;;;;36.47;25.03;;;10.00;99.90;;;;;;5042192;28;20195;-71
2022/01/02 02:12:57;;;;;;;31.93;23.87;;;9.90;99.90;;;;;;5050725;28;20777;-71
2022/01/02 02:15:25;;;;;;;32.43;23.87;;;9.90;99.90;;;;;;5008860;28;20203;-71
2022/01/02 02:17:52;;;;;;;35.30;25.03;;;9.90;99.90;;;;;;5027573;28;20207;-71
2022/01/02 02:20:25;;;;;;;34.30;25.10;;;10.00;99.90;;;;;;5032894;28;20210;-71
2022/01/02 02:22:55;;;;;;;35.87;25.97;;;10.00;99.90;;;;;;5032804;28;20191;-71
2022/01/02 02:25:35;;;;;;;39.37;26.10;;;10.00;99.90;;;;;;5042713;28;20191;-70
2022/01/02 02:28:15;;;;;;;37.77;26.27;;;10.00;99.90;;;;;;5021115;28;20226;-71
2022/01/02 02:30:47;;;;;;;36.63;27.13;;;10.00;99.90;;;;;;5044989;28;20591;-71
2022/01/02 02:33:15;;;;;;;39.20;26.20;;;10.10;99.90;;;;;;5003701;28;20611;-71
2022/01/02 02:35:44;;;;;;;36.37;26.13;;;10.10;99.90;;;;;;5044640;28;20317;-71
2022/01/02 02:38:12;;;;;;;40.63;25.73;;;10.10;99.90;;;;;;5030363;28;20194;-71
2022/01/02 02:40:39;;;;;;;36.50;25.87;;;10.00;99.90;;;;;;5016489;28;20191;-71
2022/01/02 02:43:30;;;;;;;41.77;26.87;;;10.00;99.90;;;;;;5020016;28;20192;-71
2022/01/02 02:51:54;;;;;;;38.83;26.30;;;10.00;99.90;;;;;;5027079;28;20787;-71
2022/01/02 02:54:31;;;;;;;31.53;24.13;;;10.00;99.90;;;;;;5026236;28;20607;-71
2022/01/02 02:57:00;;;;;;;41.50;27.03;;;10.00;99.90;;;;;;5027772;28;20245;-71
2022/01/02 02:59:33;;;;;;;36.87;25.67;;;10.10;99.90;;;;;;5030865;28;20216;-71
2022/01/02 03:02:00;;;;;;;39.23;26.00;;;10.10;99.90;;;;;;5030022;28;20214;-71
2022/01/02 03:04:26;;;;;;;36.47;26.20;;;10.10;99.90;;;;;;5024482;28;20226;-71
2022/01/02 03:06:54;;;;;;;41.63;26.83;;;10.10;99.90;;;;;;5026082;28;20216;-71
2022/01/02 03:12:02;;;;;;;45.80;27.70;;;10.00;99.90;;;;;;5046128;28;20195;-71
2022/01/02 03:14:28;;;;;;;41.50;26.90;;;10.00;99.90;;;;;;5010589;28;20647;-71
2022/01/02 03:16:55;;;;;;;40.57;25.87;;;10.00;99.90;;;;;;5014173;28;20203;-71
2022/01/02 03:19:21;;;;;;;35.10;26.30;;;10.00;99.90;;;;;;5010139;28;20287;-70
2022/01/02 03:21:47;;;;;;;41.97;25.73;;;10.00;99.90;;;;;;5032581;28;20206;-71
2022/01/02 03:24:14;;;;;;;40.23;26.30;;;10.00;99.90;;;;;;5022864;28;20840;-71
2022/01/02 03:26:40;;;;;;;30.87;24.43;;;9.90;99.90;;;;;;5013660;28;20922;-70
2022/01/02 03:29:06;;;;;;;40.50;24.77;;;9.80;99.90;;;;;;5010035;28;21164;-70
2022/01/02 03:31:32;;;;;;;38.20;25.00;;;9.80;99.90;;;;;;5032767;28;20186;-71
2022/01/02 03:33:59;;;;;;;35.90;24.40;;;9.70;99.90;;;;;;5037383;28;20187;-71
2022/01/02 03:36:25;;;;;;;35.80;25.10;;;9.70;99.90;;;;;;5030413;28;20245;-69
2022/01/02 03:38:51;;;;;;;33.03;24.90;;;9.70;99.90;;;;;;5036418;28;20187;-70
2022/01/02 03:41:18;;;;;;;37.77;25.63;;;9.60;99.90;;;;;;5029758;28;20198;-71
2022/01/02 03:43:44;;;;;;;38.40;25.40;;;9.70;99.90;;;;;;5042910;28;20200;-70
2022/01/02 03:46:11;;;;;;;33.70;24.87;;;9.70;99.90;;;;;;5016128;28;20854;-71
2022/01/02 03:48:37;;;;;;;40.77;26.17;;;9.70;99.90;;;;;;5049271;28;20215;-71
2022/01/02 03:51:04;;;;;;;34.83;25.30;;;9.70;99.90;;;;;;5032200;28;20202;-71
2022/01/02 03:53:31;;;;;;;34.60;24.90;;;9.70;99.90;;;;;;5046299;28;20857;-71
2022/01/02 03:55:57;;;;;;;32.10;24.93;;;9.70;99.90;;;;;;5042016;28;20701;-71
2022/01/02 03:58:23;;;;;;;33.53;23.90;;;9.70;99.90;;;;;;5039313;28;20209;-71
2022/01/02 04:00:49;;;;;;;36.77;25.37;;;9.60;99.90;;;;;;5009156;28;20206;-71
2022/01/02 04:03:16;;;;;;;36.10;24.73;;;9.60;99.90;;;;;;5039078;28;20223;-70
2022/01/02 04:05:44;;;;;;;37.27;24.67;;;9.60;99.90;;;;;;5026701;28;20197;-71
2022/01/02 04:08:12;;;;;;;36.13;24.93;;;9.60;99.90;;;;;;5027942;28;20207;-71
2022/01/02 04:10:39;;;;;;;34.80;23.60;;;9.50;99.90;;;;;;5046859;28;20214;-71
2022/01/02 04:13:06;;;;;;;33.47;23.13;;;9.50;99.90;;;;;;5024811;28;20203;-71
2022/01/02 04:15:34;;;;;;;36.77;23.23;;;9.50;99.90;;;;;;5054257;28;20187;-71
2022/01/02 04:18:00;;;;;;;35.63;23.13;;;9.50;99.90;;;;;;5027921;28;20196;-71
2022/01/02 04:20:27;;;;;;;32.67;23.40;;;9.40;99.90;;;;;;5051691;28;20187;-71
2022/01/02 04:22:53;;;;;;;36.83;23.07;;;9.40;99.90;;;;;;5036213;28;20278;-71
2022/01/02 04:25:19;;;;;;;32.83;23.87;;;9.40;99.90;;;;;;5057422;28;20237;-71
2022/01/02 04:27:46;;;;;;;32.63;23.77;;;9.40;99.90;;;;;;5055984;28;20213;-71
2022/01/02 04:30:14;;;;;;;37.37;24.60;;;9.40;99.90;;;;;;5028505;28;20644;-71
2022/01/02 04:32:41;;;;;;;38.67;24.70;;;9.40;99.90;;;;;;5033028;28;20256;-71
2022/01/02 04:35:08;;;;;;;34.20;24.27;;;9.40;99.90;;;;;;5021549;28;20195;-71
2022/01/02 04:37:35;;;;;;;31.63;23.53;;;9.40;99.90;;;;;;5049916;28;20548;-71
2022/01/02 04:40:02;;;;;;;33.90;23.27;;;9.40;99.90;;;;;;5049595;28;20186;-71
2022/01/02 04:42:28;;;;;;;35.17;23.47;;;9.40;99.90;;;;;;5048169;28;20191;-71
2022/01/02 04:44:56;;;;;;;34.13;23.87;;;9.40;99.90;;;;;;5045070;28;20196;-71
2022/01/02 04:47:22;;;;;;;32.50;23.43;;;9.40;99.90;;;;;;5030937;28;20215;-71
2022/01/02 04:49:48;;;;;;;30.47;22.10;;;9.40;99.90;;;;;;5028674;28;20283;-71
2022/01/02 04:52:14;;;;;;;36.03;22.97;;;9.40;99.90;;;;;;5032931;28;20231;-71
2022/01/02 04:54:41;;;;;;;35.47;22.80;;;9.30;99.90;;;;;;5033491;28;20274;-71
2022/01/02 04:57:08;;;;;;;31.57;22.57;;;9.30;99.90;;;;;;5028544;28;20226;-71
2022/01/02 04:59:37;;;;;;;36.77;24.13;;;9.30;99.90;;;;;;5049758;28;20187;-69
2022/01/02 05:02:05;;;;;;;33.00;23.40;;;9.30;99.90;;;;;;5025248;28;20691;-69
2022/01/02 05:04:31;;;;;;;30.93;22.77;;;9.30;99.90;;;;;;5046071;28;20659;-68
2022/01/02 05:06:57;;;;;;;30.67;22.87;;;9.30;99.90;;;;;;5032524;28;20923;-67
2022/01/02 05:09:23;;;;;;;31.77;22.27;;;9.30;99.90;;;;;;5037049;28;20192;-68
2022/01/02 05:11:51;;;;;;;36.73;22.93;;;9.20;99.90;;;;;;5047776;28;20179;-68
2022/01/02 05:14:18;;;;;;;36.50;23.20;;;9.20;99.90;;;;;;5037468;28;20563;-68
2022/01/02 05:16:44;;;;;;;34.27;22.93;;;9.30;99.90;;;;;;5039328;28;20182;-69
2022/01/02 05:19:10;;;;;;;31.77;23.60;;;9.30;99.90;;;;;;5033840;28;20218;-68
2022/01/02 05:21:36;;;;;;;32.47;23.70;;;9.40;99.90;;;;;;5050926;28;20861;-68
2022/01/02 05:24:03;;;;;;;33.40;22.93;;;9.40;99.90;;;;;;5037713;28;20701;-69
2022/01/02 05:26:29;;;;;;;32.67;22.83;;;9.40;99.90;;;;;;5022209;28;20322;-69
2022/01/02 05:28:55;;;;;;;34.27;24.97;;;9.40;99.90;;;;;;5037893;28;20294;-69
2022/01/02 05:31:22;;;;;;;33.87;24.57;;;9.50;99.90;;;;;;5058888;28;20635;-69
2022/01/02 05:33:48;;;;;;;34.97;24.70;;;9.50;99.90;;;;;;5038179;28;20191;-69
2022/01/02 05:36:17;;;;;;;39.33;24.33;;;9.50;99.90;;;;;;5029899;28;21007;-69
2022/01/02 05:38:44;;;;;;;37.13;25.20;;;9.60;99.90;;;;;;5011497;28;20194;-69
2022/01/02 05:41:10;;;;;;;42.27;24.50;;;9.60;99.90;;;;;;5016970;28;20245;-69
2022/01/02 05:43:36;;;;;;;38.53;24.00;;;9.60;99.90;;;;;;5019538;28;20191;-69
2022/01/02 05:46:05;;;;;;;33.60;24.67;;;9.60;99.90;;;;;;5029626;28;20195;-69
2022/01/02 05:48:34;;;;;;;33.93;24.73;;;9.60;99.90;;;;;;5054118;28;20268;-69
2022/01/02 05:51:01;;;;;;;38.10;24.47;;;9.60;99.90;;;;;;5031428;28;20386;-69
2022/01/02 05:53:29;;;;;;;39.13;25.43;;;9.60;99.90;;;;;;5055822;28;20183;-69
2022/01/02 05:55:57;;;;;;;33.17;23.90;;;9.60;99.90;;;;;;5038267;28;20183;-71
2022/01/02 05:58:23;;;;;;;37.30;25.60;;;9.70;99.90;;;;;;5037800;28;20191;-70
2022/01/02 06:00:50;;;;;;;41.13;27.50;;;9.80;99.90;;;;;;5047788;28;20195;-70
2022/01/02 06:03:17;;;;;;;41.13;26.97;;;9.80;99.90;;;;;;5036173;28;20210;-70
2022/01/02 06:05:46;;;;;;;40.10;26.57;;;9.90;99.90;;;;;;5054969;28;20692;-69
2022/01/02 06:08:13;;;;;;;38.03;26.10;;;9.90;99.90;;;;;;5019424;28;20215;-69
2022/01/02 06:10:39;;;;;;;36.60;26.50;;;10.00;99.90;;;;;;5036406;28;20575;-68
2022/01/02 06:13:05;;;;;;;38.03;26.47;;;10.00;99.90;;;;;;5021852;28;20942;-68
2022/01/02 06:15:32;;;;;;;36.17;27.40;;;10.10;99.90;;;;;;5030764;28;20187;-69
2022/01/02 06:17:59;;;;;;;39.07;28.73;;;10.10;99.90;;;;;;5047668;28;20217;-69
2022/01/02 06:20:25;;;;;;;35.57;27.37;;;10.10;99.90;;;;;;5034350;28;20190;-68
2022/01/02 06:22:53;;;;;;;37.70;28.17;;;10.10;99.90;;;;;;5046740;28;20191;-68
2022/01/02 06:25:21;;;;;;;38.07;27.97;;;10.20;99.90;;;;;;5039554;28;20577;-68
2022/01/02 06:27:49;;;;;;;35.80;27.10;;;10.20;99.90;;;;;;5006192;28;20237;-69
2022/01/02 06:30:15;;;;;;;39.83;28.90;;;10.30;99.90;;;;;;5024359;28;20215;-68
2022/01/02 06:32:42;;;;;;;37.97;28.67;;;10.30;99.90;;;;;;5048710;28;20194;-68
2022/01/02 06:35:08;;;;;;;37.53;26.83;;;10.40;99.90;;;;;;5015216;28;20187;-68
2022/01/02 06:37:35;;;;;;;36.27;27.20;;;10.40;99.90;;;;;;5036918;28;20218;-68
2022/01/02 06:40:01;;;;;;;36.93;27.47;;;10.50;99.90;;;;;;5054101;28;20196;-68
2022/01/02 06:42:28;;;;;;;38.97;28.53;;;10.60;99.90;;;;;;5062792;28;20281;-67
2022/01/02 06:44:54;;;;;;;38.73;28.67;;;10.60;99.90;;;;;;5031278;28;20183;-65
2022/01/02 06:47:20;;;;;;;43.10;28.13;;;10.70;99.90;;;;;;5014059;28;20211;-67
2022/01/02 06:49:46;;;;;;;43.37;29.37;;;10.70;99.90;;;;;;5031535;28;20230;-67
2022/01/02 06:52:13;;;;;;;45.83;27.00;;;10.80;99.90;;;;;;5032380;28;20202;-68
2022/01/02 06:54:40;;;;;;;37.40;24.80;;;10.90;99.90;;;;;;5023481;28;20228;-67
2022/01/02 06:57:06;;;;;;;34.57;24.67;;;10.90;99.90;;;;;;5047459;28;20191;-68
2022/01/02 06:59:32;;;;;;;35.77;25.07;;;11.00;99.90;;;;;;5036977;28;20191;-68
2022/01/02 07:02:01;;;;;;;32.40;23.43;;;11.00;99.90;;;;;;5035942;28;20895;-68
2022/01/02 07:04:28;;;;;;;35.50;22.83;;;11.10;99.90;;;;;;5029470;28;20202;-68
2022/01/02 07:06:54;;;;;;;28.37;19.20;;;11.10;99.90;;;;;;5037561;28;20576;-68
2022/01/02 07:09:20;;;;;;;26.13;19.77;;;11.30;99.90;;;;;;5036704;28;20187;-68
2022/01/02 07:11:46;;;;;;;26.47;19.00;;;11.40;99.90;;;;;;5025981;28;20183;-68
2022/01/02 07:14:13;;;;;;;32.63;19.43;;;11.40;99.90;;;;;;5025710;28;20660;-68
2022/01/02 07:16:39;;;;;;;30.97;19.87;;;11.50;99.90;;;;;;5018528;28;20218;-68
2022/01/02 07:19:05;;;;;;;30.20;18.93;;;11.50;99.90;;;;;;5031246;28;20187;-68
2022/01/02 07:21:31;;;;;;;31.60;20.13;;;11.50;99.90;;;;;;5050539;28;20179;-68
2022/01/02 07:23:58;;;;;;;36.33;20.73;;;11.50;99.90;;;;;;5047660;28;20219;-68
2022/01/02 07:26:25;;;;;;;33.13;21.13;;;11.60;99.90;;;;;;5052524;28;20191;-68
2022/01/02 07:28:51;;;;;;;26.20;19.90;;;11.70;99.90;;;;;;5031953;28;20207;-68
2022/01/02 07:31:17;;;;;;;30.13;19.90;;;11.80;99.90;;;;;;5057903;28;20903;-68
2022/01/02 07:33:47;;;;;;;30.27;19.87;;;11.80;99.90;;;;;;5047987;28;20187;-68
2022/01/02 07:36:15;;;;;;;28.57;19.90;;;11.90;99.90;;;;;;5037494;28;20179;-68
2022/01/02 07:38:41;;;;;;;38.13;19.40;;;11.90;99.90;;;;;;5055058;28;20230;-68
2022/01/02 07:41:08;;;;;;;31.43;19.47;;;12.00;99.90;;;;;;5016297;28;20200;-69
2022/01/02 07:43:34;;;;;;;29.70;19.63;;;12.00;99.90;;;;;;5017820;28;20192;-67
2022/01/02 07:46:00;;;;;;;29.37;19.73;;;12.00;99.90;;;;;;5024914;28;20198;-69
2022/01/02 07:48:27;;;;;;;29.00;20.50;;;12.10;99.90;;;;;;5036085;28;20199;-69
2022/01/02 07:50:53;;;;;;;27.50;19.97;;;12.20;99.90;;;;;;5035033;28;20187;-68
2022/01/02 07:53:20;;;;;;;26.33;19.23;;;12.20;99.90;;;;;;5021976;28;20290;-67
2022/01/02 07:55:47;;;;;;;30.90;21.07;;;12.30;99.90;;;;;;5053547;28;20187;-68
2022/01/02 07:58:13;;;;;;;28.77;20.67;;;12.30;99.90;;;;;;5035050;28;20183;-68
2022/01/02 08:00:40;;;;;;;26.77;19.70;;;12.30;99.90;;;;;;5049481;28;20695;-68
2022/01/02 08:03:07;;;;;;;30.30;20.27;;;12.40;99.90;;;;;;5026331;28;21059;-68
2022/01/02 08:05:33;;;;;;;31.80;20.93;;;12.40;99.90;;;;;;5035958;28;20262;-68
2022/01/02 08:08:00;;;;;;;31.67;20.17;;;12.50;99.90;;;;;;5025638;28;20555;-68
2022/01/02 08:10:27;;;;;;;27.10;17.80;;;12.40;99.90;;;;;;5035536;28;20995;-68
2022/01/02 08:12:55;;;;;;;29.33;15.50;;;12.50;99.90;;;;;;5027612;28;20188;-68
2022/01/02 08:15:21;;;;;;;21.10;16.10;;;12.40;99.90;;;;;;5028864;28;20314;-69
2022/01/02 08:17:48;;;;;;;22.13;15.87;;;12.50;99.90;;;;;;5046047;28;20199;-67
2022/01/02 08:20:17;;;;;;;24.03;16.10;;;12.50;99.90;;;;;;5025767;28;20223;-66
2022/01/02 08:22:44;;;;;;;26.90;16.23;;;12.50;99.90;;;;;;5038617;28;20187;-68
2022/01/02 08:25:10;;;;;;;23.17;16.83;;;12.50;99.90;;;;;;5049677;28;20643;-68
2022/01/02 08:27:37;;;;;;;19.80;14.77;;;12.50;99.90;;;;;;5045111;28;20222;-68
2022/01/02 08:30:05;;;;;;;27.73;16.50;;;12.60;99.90;;;;;;5014575;28;20221;-66
2022/01/02 08:32:31;;;;;;;24.97;15.90;;;12.50;99.90;;;;;;5047916;28;20589;-68
2022/01/02 08:34:58;;;;;;;25.43;15.73;;;12.60;99.90;;;;;;5031104;28;20188;-68
2022/01/02 08:37:24;;;;;;;23.10;16.17;;;12.60;99.90;;;;;;5006105;28;20196;-68
2022/01/02 08:39:50;;;;;;;25.63;16.73;;;12.60;99.90;;;;;;5021922;28;20666;-68
2022/01/02 08:42:17;;;;;;;20.23;16.30;;;12.60;99.90;;;;;;5026708;28;20648;-68
2022/01/02 08:44:43;;;;;;;21.37;16.60;;;12.70;99.90;;;;;;5024401;28;20200;-68
2022/01/02 08:47:11;;;;;;;29.43;16.90;;;12.80;99.90;;;;;;5014178;28;20195;-69
2022/01/02 08:49:38;;;;;;;29.33;16.10;;;12.80;99.90;;;;;;5030702;28;20773;-69
2022/01/02 08:52:04;;;;;;;27.50;16.57;;;12.90;99.90;;;;;;5042457;28;20184;-67
2022/01/02 08:54:31;;;;;;;27.37;16.43;;;12.90;99.90;;;;;;5047663;28;20195;-67
2022/01/02 08:56:57;;;;;;;22.97;15.83;;;12.90;99.90;;;;;;5029589;28;20191;-67
2022/01/02 08:59:27;;;;;;;26.47;16.03;;;13.00;99.90;;;;;;5019150;28;20188;-67
2022/01/02 09:01:55;;;;;;;28.60;17.27;;;12.90;99.90;;;;;;5032459;28;20278;-69
2022/01/02 09:04:21;;;;;;;24.47;15.80;;;13.00;99.90;;;;;;5025058;28;20199;-69
2022/01/02 09:06:48;;;;;;;26.30;16.27;;;13.00;99.90;;;;;;5025942;28;20192;-70
2022/01/02 09:09:14;;;;;;;25.13;16.70;;;13.10;99.90;;;;;;5026532;28;20224;-69
2022/01/02 09:11:40;;;;;;;28.00;16.70;;;13.10;99.90;;;;;;5035901;28;20872;-67
2022/01/02 09:14:07;;;;;;;23.13;16.87;;;13.20;99.90;;;;;;5025864;28;20195;-67
2022/01/02 09:16:36;;;;;;;30.03;16.47;;;13.20;99.90;;;;;;5020215;28;20192;-67
2022/01/02 09:19:03;;;;;;;22.30;15.97;;;13.20;99.90;;;;;;5042527;28;20243;-67
2022/01/02 09:21:29;;;;;;;25.77;16.60;;;13.20;99.90;;;;;;5038902;28;20210;-69
2022/01/02 09:23:55;;;;;;;25.03;18.43;;;13.20;99.90;;;;;;5040791;28;20288;-69
2022/01/02 09:26:22;;;;;;;29.93;16.63;;;13.30;99.90;;;;;;5023128;28;20202;-67
2022/01/02 09:28:50;;;;;;;25.33;16.80;;;13.30;99.90;;;;;;5024317;28;20251;-67
2022/01/02 09:31:17;;;;;;;25.00;16.53;;;13.40;99.90;;;;;;5025949;28;20212;-69
2022/01/02 09:33:43;;;;;;;23.13;16.80;;;13.50;99.90;;;;;;5017655;28;20176;-69
2022/01/02 09:36:09;;;;;;;30.60;17.00;;;13.50;99.90;;;;;;5018232;28;20198;-69
2022/01/02 09:38:39;;;;;;;27.90;17.43;;;13.50;99.90;;;;;;5012314;28;20238;-69
2022/01/02 09:41:05;;;;;;;31.27;17.37;;;13.60;99.90;;;;;;5042983;28;20192;-69
2022/01/02 09:43:32;;;;;;;33.07;18.33;;;13.60;99.90;;;;;;5047500;28;20187;-69
2022/01/02 09:45:59;;;;;;;35.27;18.50;;;13.70;99.90;;;;;;5015328;28;20191;-69
2022/01/02 09:48:27;;;;;;;27.40;18.60;;;13.70;99.90;;;;;;5011965;28;20211;-69
2022/01/02 09:50:53;;;;;;;32.13;18.10;;;13.80;99.90;;;;;;5025559;28;20188;-69
2022/01/02 09:53:20;;;;;;;31.03;17.67;;;13.80;99.90;;;;;;5042050;28;20230;-69
2022/01/02 09:55:46;;;;;;;36.87;17.90;;;13.80;99.90;;;;;;5046105;28;20583;-69
2022/01/02 09:58:13;;;;;;;31.23;16.77;;;13.80;99.90;;;;;;5022449;28;20818;-69
2022/01/02 10:00:48;;;;;;;24.37;16.43;;;13.80;99.90;;;;;;5043162;28;20690;-69
2022/01/02 10:03:16;;;;;;;28.50;16.13;;;13.90;99.90;;;;;;5039279;28;20226;-67
2022/01/02 10:05:59;;;;;;;24.87;16.37;;;13.90;99.90;;;;;;5025929;28;20191;-67
2022/01/02 10:08:35;;;;;;;24.97;16.13;;;13.90;99.90;;;;;;5041322;28;20226;-70
2022/01/02 10:11:15;;;;;;;29.97;16.00;;;14.00;99.90;;;;;;5019943;28;20225;-69
2022/01/02 10:13:53;;;;;;;19.80;14.70;;;14.10;99.90;;;;;;5025653;28;20199;-69
2022/01/02 10:16:32;;;;;;;22.50;15.43;;;14.10;99.90;;;;;;5021025;28;20203;-67
2022/01/02 10:19:35;;;;;;;26.70;13.83;;;14.20;99.90;;;;;;5037325;28;20210;-69
2022/01/02 10:22:07;;;;;;;26.50;14.40;;;14.20;99.90;;;;;;5025190;28;20761;-68
2022/01/02 10:24:37;;;;;;;24.47;15.53;;;14.30;99.90;;;;;;5025894;28;20237;-70
2022/01/02 10:27:21;;;;;;;19.83;13.40;;;14.30;99.90;;;;;;5045667;28;20226;-70
2022/01/02 10:30:00;;;;;;;23.50;13.50;;;14.40;99.90;;;;;;5041635;28;20195;-71
2022/01/02 10:32:31;;;;;;;18.93;11.43;;;14.40;99.90;;;;;;5021896;28;20790;-70
2022/01/02 10:35:23;;;;;;;18.63;14.23;;;14.40;99.90;;;;;;5026097;28;20353;-70
2022/01/02 10:37:53;;;;;;;19.30;11.23;;;14.50;99.90;;;;;;5024583;28;20183;-70
2022/01/02 10:40:27;;;;;;;20.03;12.87;;;14.60;99.90;;;;;;5041945;28;20290;-70
2022/01/02 10:42:54;;;;;;;24.70;12.73;;;14.70;99.90;;;;;;5025989;28;20195;-70
2022/01/02 10:45:44;;;;;;;17.30;11.50;;;14.60;99.90;;;;;;5027619;28;20187;-70
2022/01/02 10:48:14;;;;;;;16.73;12.00;;;15.10;99.90;;;;;;5035521;28;20214;-70
2022/01/02 10:51:20;;;;;;;24.73;12.83;;;17.10;99.90;;;;;;5008785;28;20188;-70
2022/01/02 10:53:59;;;;;;;16.70;11.20;;;17.10;99.90;;;;;;5024306;28;20199;-71
2022/01/02 10:56:32;;;;;;;19.63;11.63;;;16.10;99.90;;;;;;5037983;28;20183;-71
2022/01/02 10:59:17;;;;;;;20.07;10.33;;;15.90;99.90;;;;;;4978539;28;20205;-71
2022/01/02 11:01:44;;;;;;;16.47;10.43;;;16.20;99.90;;;;;;5008111;28;20200;-71
2022/01/02 11:04:10;;;;;;;17.47;10.43;;;16.40;99.90;;;;;;4974749;28;21126;-70
2022/01/02 11:06:37;;;;;;;19.63;11.73;;;16.30;99.90;;;;;;5004036;28;20840;-70
2022/01/02 11:09:04;;;;;;;15.80;11.17;;;16.10;99.90;;;;;;4986182;28;20303;-71
2022/01/02 11:11:32;;;;;;;15.73;10.27;;;15.90;99.90;;;;;;4990506;28;20261;-70
2022/01/02 11:13:59;;;;;;;12.30;9.20;;;16.00;99.90;;;;;;4989194;28;20252;-71
2022/01/02 11:16:25;;;;;;;14.73;9.90;;;16.10;99.90;;;;;;5004593;28;20185;-70
2022/01/02 11:18:53;;;;;;;13.17;8.80;;;16.10;99.90;;;;;;4986958;28;20188;-70
2022/01/02 11:21:22;;;;;;;12.73;9.33;;;16.00;99.90;;;;;;5003057;28;20334;-70
2022/01/02 11:24:12;;;;;;;14.03;8.10;;;15.90;99.90;;;;;;4987149;28;20335;-71
2022/01/02 11:27:15;;;;;;;17.03;9.73;;;15.80;99.90;;;;;;5000843;28;20216;-70
2022/01/02 11:29:41;;;;;;;17.73;9.57;;;15.70;99.90;;;;;;4985933;28;20224;-70
2022/01/02 11:32:24;;;;;;;21.17;9.73;;;15.50;99.90;;;;;;5005470;28;20264;-70
2022/01/02 11:34:52;;;;;;;21.17;10.73;;;15.30;99.90;;;;;;5002673;28;20177;-70
2022/01/02 11:37:26;;;;;;;18.57;11.23;;;15.20;99.90;;;;;;5015725;28;20300;-70
2022/01/02 11:40:04;;;;;;;18.67;10.87;;;15.10;99.90;;;;;;5025336;28;20562;-71
2022/01/02 11:42:38;;;;;;;24.43;13.73;;;15.10;99.90;;;;;;5028096;28;20186;-71
2022/01/02 11:45:24;;;;;;;19.47;14.37;;;15.00;99.90;;;;;;5052479;28;20199;-70
2022/01/02 11:47:50;;;;;;;20.90;14.60;;;14.90;99.90;;;;;;5044453;28;20233;-70
2022/01/02 11:50:36;;;;;;;27.03;13.83;;;14.80;99.90;;;;;;5031868;28;20189;-70
2022/01/02 11:53:25;;;;;;;20.67;13.70;;;14.80;99.90;;;;;;5029176;28;20302;-70
2022/01/02 11:55:54;;;;;;;20.10;12.67;;;14.80;99.90;;;;;;5025670;28;20187;-70
2022/01/02 11:58:38;;;;;;;22.33;14.87;;;14.90;99.90;;;;;;5033451;28;20490;-70
2022/01/02 12:01:07;;;;;;;21.13;12.97;;;15.00;99.90;;;;;;5039271;28;20183;-71
2022/01/02 12:03:44;;;;;;;17.73;11.23;;;15.10;99.90;;;;;;5029716;28;20268;-70
2022/01/02 12:06:19;;;;;;;20.33;11.60;;;15.20;99.90;;;;;;5027220;28;21720;-70
2022/01/02 12:08:46;;;;;;;16.77;12.70;;;15.10;99.90;;;;;;5023873;28;20206;-70
2022/01/02 12:11:31;;;;;;;20.77;13.27;;;15.10;99.90;;;;;;5034964;28;20183;-71
2022/01/02 12:14:08;;;;;;;25.77;13.77;;;15.20;99.90;;;;;;5026780;28;20207;-71
2022/01/02 12:16:49;;;;;;;20.17;13.40;;;15.10;99.90;;;;;;5025304;28;20249;-70
2022/01/02 12:19:15;;;;;;;22.47;14.57;;;15.10;99.90;;;;;;5025646;28;20180;-70
2022/01/02 12:22:12;;;;;;;29.67;15.27;;;15.20;99.90;;;;;;5023070;28;20179;-70
2022/01/02 12:24:40;;;;;;;23.67;14.73;;;15.30;99.90;;;;;;5026641;28;20596;-70
2022/01/02 12:27:17;;;;;;;24.80;14.80;;;15.20;99.90;;;;;;5025440;28;20230;-70
2022/01/02 12:29:44;;;;;;;19.03;12.93;;;15.10;99.90;;;;;;5038767;28;20188;-70
2022/01/02 12:32:11;;;;;;;26.17;12.57;;;15.10;99.90;;;;;;5043802;28;20192;-70
2022/01/02 12:34:40;;;;;;;24.03;13.20;;;15.10;99.90;;;;;;5015160;28;20222;-70
2022/01/02 12:37:06;;;;;;;19.20;12.93;;;15.00;99.90;;;;;;5025215;28;20238;-70
2022/01/02 12:39:37;;;;;;;21.53;14.87;;;14.90;99.90;;;;;;5043531;28;20223;-70
2022/01/02 12:42:08;;;;;;;27.17;14.87;;;15.00;99.90;;;;;;5010840;28;20187;-70
2022/01/02 12:44:36;;;;;;;18.97;14.30;;;14.90;99.90;;;;;;5017376;28;20187;-70
2022/01/02 12:47:09;;;;;;;24.60;14.40;;;14.90;99.90;;;;;;5034044;28;20187;-70
2022/01/02 12:49:55;;;;;;;24.23;14.20;;;14.90;99.90;;;;;;5042746;28;20229;-70
2022/01/02 12:52:23;;;;;;;24.07;13.20;;;14.90;99.90;;;;;;5023804;28;20302;-70